Time;durP1;ratioP1;P1;durP2;ratioP2;P2;SDS_P1;SDS_P2;PMS_P1;PMS_P2;Temp;Humidity;BMP_temperature;BMP_pressure;BME280_temperature;BME280_humidity;BME280_pressure;Samples;Min_cycle;Max_cycle;Signal;HPM_P1;HPM_P2
2022/08/18 00:00:43;;;;;;;41.13;31.65;;;;;;;-148.88;93.38;74518.06;4994994;28;20026;-76
2022/08/18 00:03:10;;;;;;;42.33;30.60;;;;;;;-148.88;93.33;74522.13;4995046;28;20033;-75
2022/08/18 00:05:35;;;;;;;41.67;31.25;;;;;;;-148.88;93.30;74518.06;4995149;28;20022;-75
2022/08/18 00:08:01;;;;;;;43.63;31.85;;;;;;;-148.88;93.55;74528.22;4993738;28;20030;-76
2022/08/18 00:10:26;;;;;;;39.85;29.77;;;;;;;-148.88;93.78;74536.34;4994755;28;20371;-76
2022/08/18 00:12:52;;;;;;;39.75;30.15;;;;;;;-148.88;93.69;74542.44;4994877;28;20511;-77
2022/08/18 00:15:19;;;;;;;42.00;30.30;;;;;;;-148.88;93.92;74534.31;4994619;28;20022;-76
2022/08/18 00:17:45;;;;;;;42.38;31.23;;;;;;;-148.88;94.45;74548.53;4994801;28;20023;-77
2022/08/18 00:20:14;;;;;;;45.90;32.03;;;;;;;-148.88;95.59;74558.69;4994544;28;20037;-76
2022/08/18 00:22:40;;;;;;;44.63;31.50;;;;;;;-148.88;94.69;74540.41;4994957;28;20109;-76
2022/08/18 00:25:08;;;;;;;38.88;29.38;;;;;;;-148.88;94.89;74546.50;4994850;28;20109;-75
2022/08/18 00:27:36;;;;;;;40.90;30.27;;;;;;;-148.88;95.01;74550.56;4995269;28;20157;-76
2022/08/18 00:30:07;;;;;;;37.10;28.25;;;;;;;-148.88;95.66;74566.81;4993364;28;20490;-76
2022/08/18 00:32:39;;;;;;;42.78;31.65;;;;;;;-148.88;95.51;74583.06;4993871;28;20034;-75
2022/08/18 00:35:06;;;;;;;38.15;30.13;;;;;;;-148.88;95.49;74593.22;4994418;28;20022;-77
2022/08/18 00:37:32;;;;;;;36.25;28.60;;;;;;;-148.88;95.41;74601.31;4994384;28;20149;-77
2022/08/18 00:39:57;;;;;;;35.88;29.55;;;;;;;-148.88;95.68;74607.41;4993102;28;20113;-76
2022/08/18 00:42:26;;;;;;;35.50;29.55;;;;;;;-148.88;95.22;74611.47;4993390;28;20148;-77
2022/08/18 00:44:53;;;;;;;36.67;29.92;;;;;;;-148.88;95.26;74611.47;4995005;28;20457;-77
2022/08/18 00:47:19;;;;;;;35.38;29.02;;;;;;;-148.88;95.01;74611.47;4994457;28;20030;-76
2022/08/18 00:49:45;;;;;;;36.30;28.17;;;;;;;-148.88;95.21;74619.59;4994076;28;20025;-77
2022/08/18 00:52:13;;;;;;;37.28;29.70;;;;;;;-148.88;94.93;74621.63;4994395;28;20034;-77
2022/08/18 00:54:40;;;;;;;39.45;30.27;;;;;;;-148.88;95.48;74639.91;4992350;28;20027;-77
2022/08/18 00:57:07;;;;;;;40.30;31.60;;;;;;;-148.88;96.27;74641.94;4993979;28;20027;-77
2022/08/18 00:59:55;;;;;;;40.15;31.58;;;;;;;-148.88;96.82;74660.22;4993032;28;20392;-77
2022/08/18 01:02:29;;;;;;;41.38;32.80;;;;;;;-148.88;97.94;74666.31;4994314;28;20030;-77
2022/08/18 01:05:06;;;;;;;36.83;29.00;;;;;;;-148.88;97.12;74654.13;4992743;28;20082;-77
2022/08/18 01:07:37;;;;;;;37.35;30.83;;;;;;;-148.88;97.77;74654.13;4994038;28;20120;-77
2022/08/18 01:10:04;;;;;;;35.85;28.10;;;;;;;-148.88;97.54;74635.84;4993880;28;20061;-76
2022/08/18 01:12:30;;;;;;;40.85;33.00;;;;;;;-148.88;98.14;74648.03;4992618;28;20034;-77
2022/08/18 01:14:56;;;;;;;40.80;32.15;;;;;;;-148.88;98.20;74643.97;4993870;28;20157;-77
2022/08/18 01:23:03;;;;;;;42.45;33.67;;;;;;;-148.88;98.24;74646.00;4993730;28;20504;-77
2022/08/18 01:28:16;;;;;;;43.28;32.75;;;;;;;-148.88;98.86;74662.25;4993945;28;20053;-76
2022/08/18 01:30:50;;;;;;;44.05;34.72;;;;;;;-148.88;99.25;74658.19;4994191;28;20448;-77
2022/08/18 01:33:17;;;;;;;42.75;33.65;;;;;;;-148.88;99.06;74660.22;4994217;28;20026;-76
2022/08/18 01:35:48;;;;;;;42.22;32.80;;;;;;;-148.88;98.96;74660.22;4994241;28;20069;-77
2022/08/18 01:38:14;;;;;;;40.70;31.42;;;;;;;-148.88;98.59;74660.22;4993653;28;20068;-76
2022/08/18 01:40:39;;;;;;;40.95;33.00;;;;;;;-148.88;98.70;74670.38;4992205;28;20482;-76
2022/08/18 01:43:04;;;;;;;44.00;34.60;;;;;;;-148.88;99.54;74676.47;4992322;28;20106;-76
2022/08/18 01:45:33;;;;;;;45.90;35.80;;;;;;;-148.88;99.96;74680.53;4993840;28;20089;-76
2022/08/18 01:47:59;;;;;;;52.00;38.45;;;;;;;-148.88;100.00;74672.41;4992199;28;20054;-76
2022/08/18 01:50:24;;;;;;;46.35;37.35;;;;;;;-148.88;100.00;74678.50;4993434;28;20444;-76
2022/08/18 01:52:52;;;;;;;51.92;41.17;;;;;;;-148.88;100.00;74688.66;4993708;28;20497;-76
2022/08/18 01:55:18;;;;;;;52.45;39.72;;;;;;;-148.88;100.00;74690.69;4993718;28;20022;-76
2022/08/18 01:57:44;;;;;;;55.40;41.85;;;;;;;-148.88;100.00;74698.78;4993520;28;20030;-76
2022/08/18 02:00:12;;;;;;;55.83;43.33;;;;;;;-148.88;100.00;74692.72;4993624;28;20050;-76
2022/08/18 02:02:38;;;;;;;55.63;42.95;;;;;;;-148.88;100.00;74686.63;4992564;28;20036;-76
2022/08/18 02:05:17;;;;;;;58.60;44.70;;;;;;;-148.88;100.00;74688.66;4993553;28;20068;-76
2022/08/18 02:07:43;;;;;;;57.40;43.40;;;;;;;-148.88;100.00;74682.56;4994812;28;20069;-76
2022/08/18 02:10:12;;;;;;;58.85;45.05;;;;;;;-148.88;100.00;74684.59;4996999;28;20026;-76
2022/08/18 02:12:38;;;;;;;64.05;45.83;;;;;;;-148.88;100.00;74692.72;4997016;28;20045;-76
2022/08/18 02:15:06;;;;;;;63.85;46.50;;;;;;;-148.88;100.00;74696.78;4996955;28;20096;-76
2022/08/18 02:17:44;;;;;;;55.60;42.10;;;;;;;-148.88;100.00;74692.72;4997017;28;20041;-76
2022/08/18 02:20:13;;;;;;;58.83;43.55;;;;;;;-148.88;100.00;74700.84;4995694;28;20068;-77
2022/08/18 02:22:40;;;;;;;56.28;42.13;;;;;;;-148.88;100.00;74704.88;4996841;28;20033;-76
2022/08/18 02:25:06;;;;;;;49.90;39.90;;;;;;;-148.88;100.00;74704.88;4997106;28;20105;-76
2022/08/18 02:27:31;;;;;;;56.30;42.28;;;;;;;-148.88;100.00;74713.00;4996680;28;20113;-76
2022/08/18 02:29:59;;;;;;;53.25;40.70;;;;;;;-148.88;100.00;74725.19;4996711;28;20026;-76
2022/08/18 02:32:25;;;;;;;59.00;43.60;;;;;;;-148.88;100.00;74735.34;4997051;28;20031;-77
2022/08/18 02:34:50;;;;;;;59.40;43.75;;;;;;;-148.88;100.00;74739.41;4996767;28;20038;-76
2022/08/18 02:37:15;;;;;;;67.38;47.40;;;;;;;-148.88;100.00;74735.34;4996613;28;20022;-76
2022/08/18 02:39:41;;;;;;;67.47;47.65;;;;;;;-148.88;100.00;74737.38;4996789;28;20105;-76
2022/08/18 02:42:07;;;;;;;64.82;48.13;;;;;;;-148.88;100.00;74733.31;4996634;28;20101;-77
2022/08/18 02:44:33;;;;;;;62.47;46.15;;;;;;;-148.88;100.00;74733.31;4996928;28;20030;-77
2022/08/18 02:46:59;;;;;;;69.28;49.10;;;;;;;-148.88;100.00;74735.34;4996324;28;20022;-76
2022/08/18 02:49:24;;;;;;;65.00;46.75;;;;;;;-148.88;100.00;74737.38;4996370;28;20029;-76
2022/08/18 02:51:51;;;;;;;62.25;45.92;;;;;;;-148.88;100.00;74741.44;4996612;28;20026;-76
2022/08/18 02:54:19;;;;;;;61.50;43.78;;;;;;;-148.88;100.00;74743.47;4996623;28;20105;-76
2022/08/18 02:56:45;;;;;;;54.97;42.60;;;;;;;-148.88;100.00;74745.50;4996259;28;20038;-76
2022/08/18 02:59:14;;;;;;;53.53;41.17;;;;;;;-148.88;100.00;74747.53;4996363;28;20022;-76
2022/08/18 03:01:43;;;;;;;57.38;42.90;;;;;;;-148.88;100.00;74745.50;4995510;28;20113;-78
2022/08/18 03:04:10;;;;;;;51.00;39.85;;;;;;;-148.88;100.00;74733.31;4995535;28;20113;-76
2022/08/18 03:06:38;;;;;;;52.72;40.22;;;;;;;-148.88;100.00;74741.44;4994895;28;20110;-76
2022/08/18 03:09:05;;;;;;;55.53;42.25;;;;;;;-148.88;100.00;74743.47;4996518;28;20026;-76
2022/08/18 03:11:30;;;;;;;51.17;39.20;;;;;;;-148.88;100.00;74737.38;4996155;28;20077;-76
2022/08/18 03:13:56;;;;;;;49.13;39.28;;;;;;;-148.88;100.00;74735.34;4994729;28;20117;-76
2022/08/18 03:16:23;;;;;;;50.28;37.40;;;;;;;-148.88;100.00;74735.34;4994632;28;20064;-76
2022/08/18 03:18:49;;;;;;;48.80;38.45;;;;;;;-148.88;100.00;74737.38;4993746;28;20440;-76
2022/08/18 03:21:20;;;;;;;51.20;38.35;;;;;;;-148.88;100.00;74739.41;4995761;28;20390;-77
2022/08/18 03:23:47;;;;;;;47.25;36.13;;;;;;;-148.88;100.00;74739.41;4995985;28;20109;-77
2022/08/18 03:26:17;;;;;;;46.60;36.13;;;;;;;-148.88;100.00;74745.50;4995897;28;20449;-76
2022/08/18 03:28:45;;;;;;;52.60;37.92;;;;;;;-148.88;100.00;74747.53;4995594;28;20053;-76
2022/08/18 03:31:13;;;;;;;47.28;36.00;;;;;;;-148.88;100.00;74741.44;4995585;28;20507;-77
2022/08/18 03:33:40;;;;;;;50.03;36.60;;;;;;;-148.88;100.00;74737.38;4995753;28;20543;-77
2022/08/18 03:36:12;;;;;;;52.70;38.20;;;;;;;-148.88;100.00;74747.53;4994341;28;20052;-77
2022/08/18 03:38:39;;;;;;;47.45;37.33;;;;;;;-148.88;100.00;74751.59;4994342;28;20026;-76
2022/08/18 03:41:08;;;;;;;50.95;38.75;;;;;;;-148.88;100.00;74757.69;4994158;28;20060;-76
2022/08/18 03:43:34;;;;;;;66.53;44.70;;;;;;;-148.88;100.00;74745.50;4994164;28;20025;-76
2022/08/18 03:46:08;;;;;;;71.20;51.55;;;;;;;-148.88;100.00;74749.56;4995395;28;20034;-77
2022/08/18 03:48:33;;;;;;;91.68;58.40;;;;;;;-148.88;100.00;74743.47;4996715;28;20072;-77
2022/08/18 03:51:05;;;;;;;94.45;58.60;;;;;;;-148.88;100.00;74741.44;4996116;28;20034;-76
2022/08/18 03:53:33;;;;;;;105.57;65.30;;;;;;;-148.88;100.00;74725.19;4995902;28;20061;-76
2022/08/18 03:55:59;;;;;;;108.18;67.72;;;;;;;-148.88;100.00;74733.31;4996583;28;20022;-77
2022/08/18 03:58:25;;;;;;;116.85;70.35;;;;;;;-148.88;100.00;74749.56;4997026;28;20436;-76
2022/08/18 04:00:50;;;;;;;120.72;71.88;;;;;;;-148.88;100.00;74751.59;4995849;28;20033;-78
2022/08/18 04:03:15;;;;;;;129.60;75.47;;;;;;;-148.88;100.00;74757.69;4998832;28;20041;-78
2022/08/18 04:05:40;;;;;;;136.18;77.25;;;;;;;-148.88;100.00;74757.69;4997271;28;20567;-77
2022/08/18 04:08:06;;;;;;;135.95;78.50;;;;;;;-148.88;100.00;74755.66;5001039;28;20022;-79
2022/08/18 04:10:32;;;;;;;132.85;77.07;;;;;;;-148.88;100.00;74767.84;4997451;28;20034;-78
2022/08/18 04:12:57;;;;;;;131.27;75.93;;;;;;;-148.88;100.00;74765.81;4999003;28;20030;-78
2022/08/18 04:15:23;;;;;;;133.07;75.88;;;;;;;-148.88;100.00;74773.94;4997569;28;20029;-77
2022/08/18 04:17:48;;;;;;;131.90;75.32;;;;;;;-148.88;100.00;74771.91;4998089;28;20030;-77
2022/08/18 04:20:15;;;;;;;132.25;77.90;;;;;;;-148.88;100.00;74767.84;4996989;28;20022;-78
2022/08/18 04:22:41;;;;;;;143.77;80.68;;;;;;;-148.88;100.00;74771.91;4996134;28;20033;-78
2022/08/18 04:25:10;;;;;;;135.63;78.20;;;;;;;-148.88;100.00;74759.72;4997457;28;20493;-78
2022/08/18 04:27:38;;;;;;;134.90;77.85;;;;;;;-148.88;100.00;74769.88;4995240;28;20030;-76
2022/08/18 04:30:04;;;;;;;139.60;80.13;;;;;;;-148.88;100.00;74773.94;4995600;28;20389;-77
2022/08/18 04:32:30;;;;;;;141.25;82.35;;;;;;;-148.88;100.00;74775.97;4996557;28;20030;-77
2022/08/18 04:34:55;;;;;;;131.45;76.65;;;;;;;-148.88;100.00;74771.91;4995913;28;20022;-77
2022/08/18 04:37:21;;;;;;;134.13;77.38;;;;;;;-148.88;100.00;74765.81;4994304;28;20412;-76
2022/08/18 04:39:46;;;;;;;124.50;75.72;;;;;;;-148.88;100.00;74769.88;4994285;28;20030;-76
2022/08/18 04:42:12;;;;;;;125.82;73.57;;;;;;;-148.88;100.00;74771.91;4994343;28;20030;-76
2022/08/18 04:44:38;;;;;;;132.02;77.45;;;;;;;-148.88;100.00;74775.97;4994347;28;20397;-76
2022/08/18 04:47:04;;;;;;;124.75;74.60;;;;;;;-148.88;100.00;74780.03;4994367;28;20157;-76
2022/08/18 04:49:30;;;;;;;120.55;72.00;;;;;;;-148.88;100.00;74786.13;4992858;28;20026;-76
2022/08/18 04:54:41;;;;;;;113.80;68.53;;;;;;;-148.88;100.00;74792.22;4994290;28;20034;-76
2022/08/18 04:57:12;;;;;;;107.68;66.88;;;;;;;-148.88;100.00;74808.47;4994038;28;20022;-76
2022/08/18 04:59:40;;;;;;;98.47;62.28;;;;;;;-148.88;100.00;74792.22;4994284;28;20080;-77
2022/08/18 05:02:07;;;;;;;85.35;56.05;;;;;;;-148.88;100.00;74790.19;4994322;28;20038;-76
2022/08/18 05:04:34;;;;;;;90.68;59.30;;;;;;;-148.88;100.00;74798.31;4992750;28;20100;-76
2022/08/18 05:07:00;;;;;;;90.07;58.33;;;;;;;-148.88;100.00;74794.25;4994365;28;20030;-77
2022/08/18 05:09:25;;;;;;;85.32;56.22;;;;;;;-148.88;100.00;74798.31;4992633;28;20028;-76
2022/08/18 05:11:51;;;;;;;86.80;57.60;;;;;;;-148.88;100.00;74792.22;4993796;28;20053;-76
2022/08/18 05:14:17;;;;;;;83.20;56.33;;;;;;;-148.88;100.00;74790.19;4993707;28;20441;-76
2022/08/18 05:16:42;;;;;;;86.18;57.13;;;;;;;-148.88;100.00;74786.13;4992510;28;20477;-76
2022/08/18 05:19:13;;;;;;;84.90;55.28;;;;;;;-148.88;100.00;74792.22;4993542;28;20027;-76
2022/08/18 05:21:40;;;;;;;86.78;56.40;;;;;;;-148.88;100.00;74784.09;4993803;28;20026;-76
2022/08/18 05:24:06;;;;;;;79.90;53.35;;;;;;;-148.88;100.00;74782.06;4993704;28;20037;-76
2022/08/18 05:26:32;;;;;;;78.18;52.65;;;;;;;-148.88;100.00;74788.16;4993643;28;20452;-76
2022/08/18 05:28:58;;;;;;;74.97;51.25;;;;;;;-148.88;100.00;74775.97;4993703;28;20466;-76
2022/08/18 05:31:25;;;;;;;72.97;50.92;;;;;;;-148.88;100.00;74786.13;4994060;28;20041;-76
2022/08/18 05:33:51;;;;;;;71.78;50.67;;;;;;;-148.88;100.00;74794.25;4992303;28;20493;-76
2022/08/18 05:36:35;;;;;;;76.18;50.45;;;;;;;-148.88;100.00;74790.19;4993623;28;20036;-76
2022/08/18 05:39:15;;;;;;;69.47;49.10;;;;;;;-148.88;100.00;74780.03;4993670;28;20022;-76
2022/08/18 05:42:07;;;;;;;67.75;48.03;;;;;;;-148.88;100.00;74782.06;4993418;28;20042;-76
2022/08/18 05:44:36;;;;;;;63.80;46.03;;;;;;;-148.88;100.00;74773.94;4997474;28;20035;-76
2022/08/18 05:47:12;;;;;;;63.90;45.60;;;;;;;-148.88;100.00;74773.94;4997527;28;20030;-76
2022/08/18 05:49:39;;;;;;;62.47;44.20;;;;;;;-148.88;100.00;74771.91;4997810;28;20023;-76
2022/08/18 05:52:14;;;;;;;59.47;43.67;;;;;;;-148.88;100.00;74775.97;4997560;28;20023;-76
2022/08/18 05:57:41;;;;;;;62.55;43.88;;;;;;;-148.88;100.00;74769.88;4997380;28;20033;-76
2022/08/18 06:00:09;;;;;;;56.88;41.22;;;;;;;-148.88;100.00;74761.75;4997668;28;20050;-76
2022/08/18 06:02:48;;;;;;;56.83;41.50;;;;;;;-148.88;100.00;74775.97;4997284;28;20037;-76
2022/08/18 06:05:25;;;;;;;50.83;38.72;;;;;;;-148.88;99.22;74771.91;4997870;28;20018;-77
2022/08/18 06:08:03;;;;;;;51.45;38.05;;;;;;;-148.88;98.79;74765.81;4997141;28;20057;-76
2022/08/18 06:10:30;;;;;;;53.20;38.38;;;;;;;-148.88;98.51;74773.94;4997521;28;20050;-76
2022/08/18 06:12:58;;;;;;;50.50;36.90;;;;;;;-148.88;98.60;74761.75;4997177;28;20032;-76
2022/08/18 06:15:37;;;;;;;49.72;36.25;;;;;;;-148.88;98.75;74753.63;4997178;28;20036;-76
2022/08/18 06:18:26;;;;;;;48.47;37.03;;;;;;;-148.88;98.00;74757.69;4996890;28;20110;-76
2022/08/18 06:21:30;;;;;;;52.25;38.78;;;;;;;-148.88;98.36;74739.41;4996881;28;20540;-76
2022/08/18 06:24:08;;;;;;;51.25;37.30;;;;;;;-148.88;96.93;74741.44;4995956;28;20441;-76
2022/08/18 06:26:52;;;;;;;51.25;38.38;;;;;;;-148.88;97.08;74731.28;4996894;28;20473;-76
2022/08/18 06:29:49;;;;;;;;;;;;;;;-148.88;97.08;74713.00;4997181;28;20453;-76
2022/08/18 06:32:30;;;;;;;49.28;36.88;;;;;;;-148.88;96.58;74710.97;4963637;28;19910;-76
2022/08/18 06:35:20;;;;;;;48.40;36.90;;;;;;;-148.88;96.25;74704.88;4997093;28;20524;-76
2022/08/18 06:41:11;;;;;;;49.58;36.70;;;;;;;-148.88;96.18;74704.88;4996442;28;20104;-76
2022/08/18 06:43:48;;;;;;;50.33;37.53;;;;;;;-148.88;95.64;74700.84;4996836;28;20038;-76
2022/08/18 06:46:20;;;;;;;49.20;37.58;;;;;;;-148.88;96.16;74696.78;4996569;28;20069;-76
2022/08/18 06:48:53;;;;;;;50.42;37.15;;;;;;;-148.88;95.93;74686.63;4996359;28;20157;-76
2022/08/18 06:51:21;;;;;;;46.72;36.92;;;;;;;-148.88;95.43;74680.53;4996757;28;20105;-76
2022/08/18 06:54:00;;;;;;;54.88;40.22;;;;;;;-148.88;95.70;74676.47;4994939;28;20540;-76
2022/08/18 06:56:36;;;;;;;52.05;39.83;;;;;;;-148.88;95.36;74678.50;4995128;28;20030;-76
2022/08/18 06:59:40;;;;;;;54.72;40.08;;;;;;;-148.88;95.17;74668.34;4996251;28;20389;-76
2022/08/18 07:02:40;;;;;;;54.35;40.28;;;;;;;-148.88;94.87;74639.91;4917758;29;20032;-76
2022/08/18 07:05:19;;;;;;;55.47;42.50;;;;;;;-148.88;94.48;74619.59;4907557;29;20044;-76
2022/08/18 07:07:57;;;;;;;59.90;42.58;;;;;;;-148.88;93.53;74613.50;4979874;28;20113;-76
2022/08/18 07:10:35;;;;;;;55.67;41.92;;;;;;;-148.88;93.29;74609.44;4996728;28;20018;-77
2022/08/18 07:13:13;;;;;;;56.72;42.30;;;;;;;-148.88;93.10;74611.47;4995797;28;20117;-76
2022/08/18 07:15:40;;;;;;;56.72;41.97;;;;;;;-148.88;93.48;74591.19;4996308;28;20044;-77
2022/08/18 07:18:08;;;;;;;57.17;41.67;;;;;;;-148.88;92.58;74579.00;4995940;28;20089;-77
2022/08/18 07:20:46;;;;;;;58.78;42.10;;;;;;;-148.88;91.70;74579.00;4996312;28;20026;-76
2022/08/18 07:23:39;;;;;;;57.20;41.72;;;;;;;-148.88;91.03;74564.78;4995745;28;20109;-76
2022/08/18 07:26:14;;;;;;;57.30;41.60;;;;;;;-148.88;91.68;74568.84;4992359;28;20039;-76
2022/08/18 07:28:43;;;;;;;57.30;42.33;;;;;;;-148.88;90.78;74558.69;4995720;28;20022;-76
2022/08/18 07:31:15;;;;;;;63.80;43.10;;;;;;;-148.88;90.47;74552.59;4995693;28;20041;-77
2022/08/18 07:33:43;;;;;;;58.28;42.22;;;;;;;-148.88;90.61;74546.50;4994392;28;20202;-76
2022/08/18 07:36:09;;;;;;;59.20;42.28;;;;;;;-148.88;91.14;74558.69;4995959;28;20093;-76
2022/08/18 07:38:41;;;;;;;54.67;40.75;;;;;;;-148.88;91.13;74572.91;4996159;28;20105;-76
2022/08/18 07:41:25;;;;;;;55.97;39.95;;;;;;;-148.88;91.02;74572.91;4994254;28;20481;-76
2022/08/18 07:44:11;;;;;;;50.75;38.88;;;;;;;-148.88;90.26;74560.72;4995896;28;20030;-76
2022/08/18 07:46:59;;;;;;;54.85;39.58;;;;;;;-148.88;90.04;74550.56;4994101;28;20493;-76
2022/08/18 07:49:30;;;;;;;53.20;39.10;;;;;;;-148.88;89.38;74546.50;4995390;28;20026;-76
2022/08/18 07:52:05;;;;;;;52.60;39.03;;;;;;;-148.88;89.64;74518.06;4995615;28;20114;-76
2022/08/18 07:54:48;;;;;;;52.30;39.03;;;;;;;-148.88;87.94;74522.13;4995834;28;20030;-76
2022/08/18 07:57:37;;;;;;;52.78;38.88;;;;;;;-148.88;87.53;74505.88;4995016;28;20527;-76
2022/08/18 08:00:08;;;;;;;50.22;37.42;;;;;;;-148.88;86.96;74497.78;4994725;28;20029;-76
2022/08/18 08:02:58;;;;;;;49.15;37.38;;;;;;;-148.88;86.34;74495.75;4995325;28;20030;-76
2022/08/18 08:05:40;;;;;;;53.75;39.17;;;;;;;-148.88;85.59;74465.28;4995073;28;20492;-76
2022/08/18 08:08:16;;;;;;;53.95;38.85;;;;;;;-148.88;86.18;74481.53;4995246;28;20030;-76
2022/08/18 08:11:05;;;;;;;52.65;38.28;;;;;;;-148.88;85.91;74503.84;4993814;28;20022;-76
2022/08/18 08:14:05;;;;;;;51.22;39.03;;;;;;;-148.88;85.22;74501.81;4955135;28;20093;-76
2022/08/18 08:16:44;;;;;;;48.95;38.00;;;;;;;-148.88;84.81;74489.66;4994975;28;20101;-76
2022/08/18 08:19:39;;;;;;;51.25;39.55;;;;;;;-148.88;85.06;74481.53;4994666;28;20106;-76
2022/08/18 08:22:29;;;;;;;51.08;40.22;;;;;;;-148.88;84.97;74469.34;4995267;28;20428;-76
2022/08/18 08:25:05;;;;;;;50.50;38.10;;;;;;;-148.88;85.47;74475.44;4994526;28;20026;-76
2022/08/18 08:27:49;;;;;;;48.97;37.60;;;;;;;-148.88;84.76;74449.03;4994581;28;20424;-76
2022/08/18 08:30:18;;;;;;;51.47;38.03;;;;;;;-148.88;84.93;74444.97;4993318;28;20022;-76
2022/08/18 08:33:03;;;;;;;49.10;37.72;;;;;;;-148.88;84.50;74453.09;4994519;28;20041;-76
2022/08/18 08:36:11;;;;;;;48.15;37.22;;;;;;;-148.88;83.58;74444.97;4994736;28;20050;-76
2022/08/18 08:38:44;;;;;;;46.33;35.67;;;;;;;-148.88;83.84;74453.09;4980686;28;20061;-77
2022/08/18 08:41:14;;;;;;;;;;;;;;;-148.88;82.84;74457.16;4994946;28;20060;-77
2022/08/18 08:43:46;;;;;;;46.20;36.08;;;;;;;-148.88;83.43;74461.22;4994360;28;19909;-77
2022/08/18 08:46:16;;;;;;;47.80;37.22;;;;;;;-148.88;83.59;74455.13;4994592;28;20034;-76
2022/08/18 08:48:47;;;;;;;47.97;37.55;;;;;;;-148.88;83.45;74442.94;4994236;28;20109;-76
2022/08/18 08:51:35;;;;;;;50.22;36.72;;;;;;;-148.88;83.08;74465.28;4994355;28;20050;-76
2022/08/18 08:54:16;;;;;;;53.53;38.08;;;;;;;-148.88;84.25;74463.25;4994454;28;20112;-76
2022/08/18 08:56:46;;;;;;;51.22;38.65;;;;;;;-148.88;84.29;74469.34;4994719;28;20033;-76
2022/08/18 08:59:15;;;;;;;51.10;39.00;;;;;;;-148.88;84.70;74444.97;4993871;28;20026;-76
2022/08/18 09:02:12;;;;;;;53.67;39.28;;;;;;;-148.88;83.51;74424.66;4994066;28;20037;-76
2022/08/18 09:05:00;;;;;;;48.35;38.03;;;;;;;-148.88;83.04;74412.47;4994204;28;20140;-76
2022/08/18 09:07:52;;;;;;;49.70;38.33;;;;;;;-148.88;83.40;74424.66;4994181;28;20030;-76
2022/08/18 09:10:26;;;;;;;50.15;38.63;;;;;;;-148.88;83.01;74424.66;4948103;28;20041;-77
2022/08/18 09:13:09;;;;;;;49.65;37.80;;;;;;;-148.88;83.48;74424.66;4994330;28;20038;-77
2022/08/18 09:15:40;;;;;;;49.78;37.95;;;;;;;-148.88;83.07;74424.66;4993653;28;20037;-76
2022/08/18 09:18:22;;;;;;;51.08;37.70;;;;;;;-148.88;82.90;74428.72;4992132;28;20022;-76
2022/08/18 09:20:56;;;;;;;49.03;38.58;;;;;;;-148.88;83.28;74449.03;4993893;28;20037;-76
2022/08/18 09:23:33;;;;;;;50.67;38.20;;;;;;;-148.88;82.82;74422.63;4993908;28;20034;-76
2022/08/18 09:26:23;;;;;;;48.72;37.75;;;;;;;-148.88;81.21;74408.44;4993715;28;20109;-77
2022/08/18 09:28:57;;;;;;;47.75;38.17;;;;;;;-148.88;81.38;74426.69;4993467;28;20033;-76
2022/08/18 09:31:23;;;;;;;46.40;35.67;;;;;;;-148.88;82.20;74426.69;4993763;28;20037;-76
2022/08/18 09:34:02;;;;;;;49.10;38.20;;;;;;;-148.88;81.16;74424.66;4993581;28;20064;-76
2022/08/18 09:36:58;;;;;;;59.75;39.58;;;;;;;-148.88;81.86;74444.97;4994318;28;20433;-76
2022/08/18 09:42:41;;;;;;;46.17;36.00;;;;;;;-148.88;81.86;74416.53;4992857;28;20033;-76
2022/08/18 09:45:30;;;;;;;48.13;36.58;;;;;;;-148.88;81.11;74424.66;4992671;28;20030;-76
2022/08/18 09:48:00;;;;;;;44.60;34.28;;;;;;;-148.88;81.36;74436.84;4981046;28;20504;-77
2022/08/18 09:50:26;;;;;;;42.42;33.20;;;;;;;-148.88;81.06;74451.06;4992601;28;20037;-76
2022/08/18 09:52:52;;;;;;;44.45;33.22;;;;;;;-148.88;81.99;74432.78;4993449;28;20453;-76
2022/08/18 09:55:17;;;;;;;43.83;34.08;;;;;;;-148.88;80.52;74414.50;4992778;28;20046;-76
2022/08/18 09:57:45;;;;;;;42.97;33.55;;;;;;;-148.88;81.06;74408.44;4992383;28;20034;-76
2022/08/18 10:00:14;;;;;;;43.92;33.60;;;;;;;-148.88;81.16;74426.69;4992397;28;20049;-76
2022/08/18 10:02:40;;;;;;;46.50;33.35;;;;;;;-148.88;80.91;74390.16;4992506;28;20026;-76
2022/08/18 10:05:14;;;;;;;41.78;31.73;;;;;;;-148.88;81.21;74339.38;4992492;28;20057;-77
2022/08/18 10:08:02;;;;;;;37.13;28.85;;;;;;;-148.88;76.80;74327.19;4992523;28;20436;-76
2022/08/18 10:10:38;;;;;;;32.85;27.35;;;;;;;-148.88;75.38;74333.28;4993083;28;20029;-76
2022/08/18 10:13:18;;;;;;;32.45;25.58;;;;;;;-148.88;75.07;74284.56;4992500;28;20029;-76
2022/08/18 10:16:20;;;;;;;32.97;27.10;;;;;;;-148.88;74.34;74250.03;4992578;28;20026;-76
2022/08/18 10:18:51;;;;;;;35.40;26.98;;;;;;;-148.88;72.96;74189.13;4992511;28;20026;-76
2022/08/18 10:21:27;;;;;;;32.03;25.88;;;;;;;-148.88;72.26;74235.84;4992427;28;20026;-77
2022/08/18 10:24:18;;;;;;;32.40;25.90;;;;;;;-148.88;71.80;74225.69;4992809;28;20044;-77
2022/08/18 10:26:43;;;;;;;32.03;25.00;;;;;;;-148.88;72.95;74280.50;4991153;28;20030;-77
2022/08/18 10:29:24;;;;;;;32.57;26.80;;;;;;;-148.88;73.45;74290.66;4994101;28;20018;-76
2022/08/18 10:31:55;;;;;;;30.35;24.45;;;;;;;-148.88;74.65;74278.47;4995821;28;20026;-76
2022/08/18 10:34:51;;;;;;;34.25;24.00;;;;;;;-148.88;73.84;74268.31;4995679;28;20022;-76
2022/08/18 10:37:25;;;;;;;29.17;23.95;;;;;;;-148.88;73.54;74270.34;4995706;28;20025;-76
2022/08/18 10:39:54;;;;;;;26.67;20.80;;;;;;;-148.88;72.70;74306.91;4945892;23;1687032;-87
2022/08/18 10:42:25;;;;;;;28.10;21.90;;;;;;;-148.88;72.89;74306.91;4995754;28;20027;-88
2022/08/18 10:45:08;;;;;;;24.20;20.50;;;;;;;-148.88;72.62;74298.78;4996795;28;20488;-86
2022/08/18 10:47:35;;;;;;;28.70;22.65;;;;;;;-148.88;70.64;74237.88;4995454;28;20149;-87
2022/08/18 10:50:08;;;;;;;28.35;21.83;;;;;;;-148.88;69.80;74221.63;4995276;28;20108;-88
2022/08/18 10:53:09;;;;;;;25.15;21.33;;;;;;;-148.88;71.50;74221.63;4997002;28;20026;-87
2022/08/18 10:58:23;;;;;;;26.25;21.95;;;;;;;-148.88;70.91;74246.00;5012909;28;20068;-76
2022/08/18 11:01:07;;;;;;;20.10;16.77;;;;;;;-148.88;71.09;74282.53;5015647;28;20029;-76
2022/08/18 11:03:39;;;;;;;21.02;15.68;;;;;;;-148.88;71.32;74284.56;5014452;28;20029;-77
2022/08/18 11:06:13;;;;;;;19.20;16.35;;;;;;;-148.88;71.66;74298.78;5015668;28;20025;-76
2022/08/18 11:08:45;;;;;;;30.55;25.02;;;;;;;-148.88;74.10;74298.78;5016420;28;20075;-76
2022/08/18 11:11:12;;;;;;;34.72;28.67;;;;;;;-148.88;75.48;74310.97;5014526;28;20014;-77
2022/08/18 11:14:08;;;;;;;36.90;27.73;;;;;;;-148.88;75.61;74313.00;5015574;28;20052;-76
2022/08/18 11:17:01;;;;;;;36.65;27.80;;;;;;;-148.88;76.25;74315.03;5015770;28;20018;-76
2022/08/18 11:19:27;;;;;;;36.63;29.10;;;;;;;-148.88;74.81;74315.03;5015529;28;20029;-75
2022/08/18 11:21:53;;;;;;;35.78;27.20;;;;;;;-148.88;76.22;74310.97;5014101;28;20100;-77
2022/08/18 11:24:25;;;;;;;34.80;26.08;;;;;;;-148.88;76.09;74282.53;5015468;28;20132;-76
2022/08/18 11:26:56;;;;;;;30.60;25.67;;;;;;;-148.88;74.66;74308.94;5015214;28;20022;-76
2022/08/18 11:29:23;;;;;;;34.33;26.80;;;;;;;-148.88;76.12;74315.03;5015526;28;20062;-76
2022/08/18 11:31:55;;;;;;;34.25;25.23;;;;;;;-148.88;75.62;74290.66;5015166;28;20018;-76
2022/08/18 11:34:27;;;;;;;30.30;24.67;;;;;;;-148.88;74.79;74282.53;5015286;28;20068;-77
2022/08/18 11:37:28;;;;;;;28.10;22.85;;;;;;;-148.88;75.05;74298.78;5013792;28;20026;-76
2022/08/18 11:39:57;;;;;;;23.67;18.23;;;;;;;-148.88;73.90;74282.53;4975970;28;20128;-76
2022/08/18 11:42:28;;;;;;;23.50;18.80;;;;;;;-148.88;74.54;74304.88;5015135;28;20463;-76
2022/08/18 11:45:03;;;;;;;20.70;16.48;;;;;;;-148.88;73.78;74282.53;5014118;28;20026;-76
2022/08/18 11:47:29;;;;;;;17.73;14.63;;;;;;;-148.88;74.08;74264.25;5014880;28;20510;-76